sensor_id;sensor_type;location;lat;lon;timestamp;pressure;altitude;pressure_sealevel;temperature;humidity
57250;BME280;43102;52.014;-0.680;2023-02-13T00:00:00;102661;;;9.09;67.56
57250;BME280;43102;52.014;-0.680;2023-02-13T00:01:00;102661;;;9.09;67.56
57250;BME280;43102;52.014;-0.680;2023-02-13T00:02:00;102661;;;9.09;67.56
57250;BME280;43102;52.014;-0.680;2023-02-13T00:03:00;102661;;;9.09;67.39
57250;BME280;43102;52.014;-0.680;2023-02-13T00:04:00;102661;;;9.09;67.39
57250;BME280;43102;52.014;-0.680;2023-02-13T00:05:00;102661;;;9.09;67.39
57250;BME280;43102;52.014;-0.680;2023-02-13T00:06:00;102661;;;9.09;67.39
57250;BME280;43102;52.014;-0.680;2023-02-13T00:07:00;102661;;;9.09;67.39
57250;BME280;43102;52.014;-0.680;2023-02-13T00:08:00;102663;;;9.13;67.37
57250;BME280;43102;52.014;-0.680;2023-02-13T00:09:00;102663;;;9.13;67.37
57250;BME280;43102;52.014;-0.680;2023-02-13T00:10:00;102663;;;9.13;67.37
57250;BME280;43102;52.014;-0.680;2023-02-13T00:11:00;102663;;;9.13;67.37
57250;BME280;43102;52.014;-0.680;2023-02-13T00:12:00;102663;;;9.13;67.37
57250;BME280;43102;52.014;-0.680;2023-02-13T00:13:00;102664;;;9.07;67.49
57250;BME280;43102;52.014;-0.680;2023-02-13T00:14:00;102664;;;9.07;67.49
57250;BME280;43102;52.014;-0.680;2023-02-13T00:15:00;102664;;;9.07;67.49
57250;BME280;43102;52.014;-0.680;2023-02-13T00:16:01;102664;;;9.07;67.49
57250;BME280;43102;52.014;-0.680;2023-02-13T00:17:00;102664;;;9.07;67.49
57250;BME280;43102;52.014;-0.680;2023-02-13T00:18:00;102667;;;9.01;67.61
57250;BME280;43102;52.014;-0.680;2023-02-13T00:19:00;102667;;;9.01;67.61
57250;BME280;43102;52.014;-0.680;2023-02-13T00:20:00;102667;;;9.01;67.61
57250;BME280;43102;52.014;-0.680;2023-02-13T00:21:01;102667;;;9.01;67.61
57250;BME280;43102;52.014;-0.680;2023-02-13T00:22:00;102667;;;9.01;67.61
57250;BME280;43102;52.014;-0.680;2023-02-13T00:23:00;102670;;;8.97;67.63
57250;BME280;43102;52.014;-0.680;2023-02-13T00:24:00;102670;;;8.97;67.63
57250;BME280;43102;52.014;-0.680;2023-02-13T00:25:00;102670;;;8.97;67.63
57250;BME280;43102;52.014;-0.680;2023-02-13T00:26:03;102670;;;8.97;67.63
57250;BME280;43102;52.014;-0.680;2023-02-13T00:27:00;102670;;;8.97;67.63
57250;BME280;43102;52.014;-0.680;2023-02-13T00:28:00;102671;;;9.02;67.63
57250;BME280;43102;52.014;-0.680;2023-02-13T00:29:00;102671;;;9.02;67.63
57250;BME280;43102;52.014;-0.680;2023-02-13T00:30:00;102671;;;9.02;67.63
57250;BME280;43102;52.014;-0.680;2023-02-13T00:31:04;102671;;;9.02;67.63
57250;BME280;43102;52.014;-0.680;2023-02-13T00:32:00;102671;;;9.02;67.63
57250;BME280;43102;52.014;-0.680;2023-02-13T00:33:00;102667;;;9.00;67.74
57250;BME280;43102;52.014;-0.680;2023-02-13T00:34:00;102667;;;9.00;67.74
57250;BME280;43102;52.014;-0.680;2023-02-13T00:35:00;102667;;;9.00;67.74
57250;BME280;43102;52.014;-0.680;2023-02-13T00:36:01;102667;;;9.00;67.74
57250;BME280;43102;52.014;-0.680;2023-02-13T00:37:00;102667;;;9.00;67.74
57250;BME280;43102;52.014;-0.680;2023-02-13T00:38:00;102666;;;8.98;67.75
57250;BME280;43102;52.014;-0.680;2023-02-13T00:39:00;102666;;;8.98;67.75
57250;BME280;43102;52.014;-0.680;2023-02-13T00:40:00;102666;;;8.98;67.75
57250;BME280;43102;52.014;-0.680;2023-02-13T00:41:00;102666;;;8.98;67.75
57250;BME280;43102;52.014;-0.680;2023-02-13T00:42:00;102666;;;8.98;67.75
57250;BME280;43102;52.014;-0.680;2023-02-13T00:43:00;102667;;;8.97;67.94
57250;BME280;43102;52.014;-0.680;2023-02-13T00:44:00;102667;;;8.97;67.94
57250;BME280;43102;52.014;-0.680;2023-02-13T00:45:00;102667;;;8.97;67.94
57250;BME280;43102;52.014;-0.680;2023-02-13T00:46:00;102667;;;8.97;67.94
57250;BME280;43102;52.014;-0.680;2023-02-13T00:47:00;102667;;;8.97;67.94
57250;BME280;43102;52.014;-0.680;2023-02-13T00:48:00;102668;;;8.97;68.03
57250;BME280;43102;52.014;-0.680;2023-02-13T00:49:00;102668;;;8.97;68.03
57250;BME280;43102;52.014;-0.680;2023-02-13T00:50:00;102668;;;8.97;68.03
57250;BME280;43102;52.014;-0.680;2023-02-13T00:51:00;102668;;;8.97;68.03
57250;BME280;43102;52.014;-0.680;2023-02-13T00:52:00;102668;;;8.97;68.03
57250;BME280;43102;52.014;-0.680;2023-02-13T00:53:00;102660;;;8.95;67.99
57250;BME280;43102;52.014;-0.680;2023-02-13T00:54:00;102660;;;8.95;67.99
57250;BME280;43102;52.014;-0.680;2023-02-13T00:55:00;102660;;;8.95;67.99
57250;BME280;43102;52.014;-0.680;2023-02-13T00:56:00;102660;;;8.95;67.99
57250;BME280;43102;52.014;-0.680;2023-02-13T00:57:00;102660;;;8.95;67.99
57250;BME280;43102;52.014;-0.680;2023-02-13T00:58:00;102653;;;8.93;67.90
57250;BME280;43102;52.014;-0.680;2023-02-13T00:59:00;102653;;;8.93;67.90
57250;BME280;43102;52.014;-0.680;2023-02-13T01:00:00;102653;;;8.93;67.90
57250;BME280;43102;52.014;-0.680;2023-02-13T01:01:00;102653;;;8.93;67.90
57250;BME280;43102;52.014;-0.680;2023-02-13T01:02:00;102653;;;8.93;67.90
57250;BME280;43102;52.014;-0.680;2023-02-13T01:03:00;102646;;;8.91;67.74
57250;BME280;43102;52.014;-0.680;2023-02-13T01:04:00;102646;;;8.91;67.74
57250;BME280;43102;52.014;-0.680;2023-02-13T01:05:00;102646;;;8.91;67.74
57250;BME280;43102;52.014;-0.680;2023-02-13T01:06:00;102646;;;8.91;67.74
57250;BME280;43102;52.014;-0.680;2023-02-13T01:07:00;102646;;;8.91;67.74
57250;BME280;43102;52.014;-0.680;2023-02-13T01:08:00;102642;;;8.92;67.83
57250;BME280;43102;52.014;-0.680;2023-02-13T01:09:01;102642;;;8.92;67.83
57250;BME280;43102;52.014;-0.680;2023-02-13T01:10:00;102642;;;8.92;67.83
57250;BME280;43102;52.014;-0.680;2023-02-13T01:11:00;102642;;;8.92;67.83
57250;BME280;43102;52.014;-0.680;2023-02-13T01:12:00;102642;;;8.92;67.83
57250;BME280;43102;52.014;-0.680;2023-02-13T01:13:00;102645;;;8.91;67.87
57250;BME280;43102;52.014;-0.680;2023-02-13T01:14:00;102645;;;8.91;67.87
57250;BME280;43102;52.014;-0.680;2023-02-13T01:15:00;102645;;;8.91;67.87
57250;BME280;43102;52.014;-0.680;2023-02-13T01:16:00;102645;;;8.91;67.87
57250;BME280;43102;52.014;-0.680;2023-02-13T01:17:00;102645;;;8.91;67.87
57250;BME280;43102;52.014;-0.680;2023-02-13T01:18:00;102638;;;8.91;67.88
57250;BME280;43102;52.014;-0.680;2023-02-13T01:19:00;102638;;;8.91;67.88
57250;BME280;43102;52.014;-0.680;2023-02-13T01:20:00;102638;;;8.91;67.88
57250;BME280;43102;52.014;-0.680;2023-02-13T01:21:02;102638;;;8.91;67.88
57250;BME280;43102;52.014;-0.680;2023-02-13T01:22:00;102638;;;8.91;67.88
57250;BME280;43102;52.014;-0.680;2023-02-13T01:23:00;102633;;;8.91;67.84
57250;BME280;43102;52.014;-0.680;2023-02-13T01:24:02;102633;;;8.91;67.84
57250;BME280;43102;52.014;-0.680;2023-02-13T01:25:00;102633;;;8.91;67.84
57250;BME280;43102;52.014;-0.680;2023-02-13T01:26:02;102633;;;8.91;67.84
57250;BME280;43102;52.014;-0.680;2023-02-13T01:27:00;102633;;;8.91;67.84
57250;BME280;43102;52.014;-0.680;2023-02-13T01:28:00;102634;;;8.89;67.78
57250;BME280;43102;52.014;-0.680;2023-02-13T01:29:00;102634;;;8.89;67.78
57250;BME280;43102;52.014;-0.680;2023-02-13T01:30:00;102634;;;8.89;67.78
57250;BME280;43102;52.014;-0.680;2023-02-13T01:31:00;102634;;;8.89;67.78
57250;BME280;43102;52.014;-0.680;2023-02-13T01:32:00;102634;;;8.89;67.78
57250;BME280;43102;52.014;-0.680;2023-02-13T01:33:00;102638;;;8.89;67.74
57250;BME280;43102;52.014;-0.680;2023-02-13T01:34:00;102638;;;8.89;67.74
57250;BME280;43102;52.014;-0.680;2023-02-13T01:35:00;102638;;;8.89;67.74
57250;BME280;43102;52.014;-0.680;2023-02-13T01:36:08;102638;;;8.89;67.74
57250;BME280;43102;52.014;-0.680;2023-02-13T01:37:00;102638;;;8.89;67.74
57250;BME280;43102;52.014;-0.680;2023-02-13T01:38:00;102644;;;8.90;67.77
57250;BME280;43102;52.014;-0.680;2023-02-13T01:39:00;102644;;;8.90;67.77
57250;BME280;43102;52.014;-0.680;2023-02-13T01:40:00;102644;;;8.90;67.77
57250;BME280;43102;52.014;-0.680;2023-02-13T01:41:00;102644;;;8.90;67.77
57250;BME280;43102;52.014;-0.680;2023-02-13T01:42:00;102644;;;8.90;67.77
57250;BME280;43102;52.014;-0.680;2023-02-13T01:43:00;102639;;;8.90;67.78
57250;BME280;43102;52.014;-0.680;2023-02-13T01:44:00;102639;;;8.90;67.78
57250;BME280;43102;52.014;-0.680;2023-02-13T01:45:03;102639;;;8.90;67.78
57250;BME280;43102;52.014;-0.680;2023-02-13T01:46:00;102639;;;8.90;67.78
57250;BME280;43102;52.014;-0.680;2023-02-13T01:47:00;102639;;;8.90;67.78
57250;BME280;43102;52.014;-0.680;2023-02-13T01:48:05;102630;;;8.90;67.80
57250;BME280;43102;52.014;-0.680;2023-02-13T01:49:02;102630;;;8.90;67.80
57250;BME280;43102;52.014;-0.680;2023-02-13T01:50:03;102630;;;8.90;67.80
57250;BME280;43102;52.014;-0.680;2023-02-13T01:51:01;102630;;;8.90;67.80
57250;BME280;43102;52.014;-0.680;2023-02-13T01:52:00;102630;;;8.90;67.80
57250;BME280;43102;52.014;-0.680;2023-02-13T01:54:02;102630;;;8.89;67.82
57250;BME280;43102;52.014;-0.680;2023-02-13T01:55:00;102630;;;8.89;67.82
57250;BME280;43102;52.014;-0.680;2023-02-13T01:56:02;102630;;;8.89;67.82
57250;BME280;43102;52.014;-0.680;2023-02-13T01:57:02;102630;;;8.89;67.82
57250;BME280;43102;52.014;-0.680;2023-02-13T01:58:01;102625;;;8.86;67.94
57250;BME280;43102;52.014;-0.680;2023-02-13T01:59:01;102625;;;8.86;67.94
57250;BME280;43102;52.014;-0.680;2023-02-13T02:00:09;102625;;;8.86;67.94
57250;BME280;43102;52.014;-0.680;2023-02-13T02:01:00;102625;;;8.86;67.94
57250;BME280;43102;52.014;-0.680;2023-02-13T02:02:00;102625;;;8.86;67.94
57250;BME280;43102;52.014;-0.680;2023-02-13T02:03:02;102631;;;8.82;67.88
57250;BME280;43102;52.014;-0.680;2023-02-13T02:04:09;102631;;;8.82;67.88
57250;BME280;43102;52.014;-0.680;2023-02-13T02:05:00;102631;;;8.82;67.88
57250;BME280;43102;52.014;-0.680;2023-02-13T02:06:00;102631;;;8.82;67.88
57250;BME280;43102;52.014;-0.680;2023-02-13T02:07:02;102631;;;8.82;67.88
57250;BME280;43102;52.014;-0.680;2023-02-13T02:08:00;102630;;;8.81;67.95
57250;BME280;43102;52.014;-0.680;2023-02-13T02:09:01;102630;;;8.81;67.95
57250;BME280;43102;52.014;-0.680;2023-02-13T02:10:02;102630;;;8.81;67.95
57250;BME280;43102;52.014;-0.680;2023-02-13T02:11:03;102630;;;8.81;67.95
57250;BME280;43102;52.014;-0.680;2023-02-13T02:12:02;102630;;;8.81;67.95
57250;BME280;43102;52.014;-0.680;2023-02-13T02:13:03;102625;;;8.78;67.90
57250;BME280;43102;52.014;-0.680;2023-02-13T02:14:00;102625;;;8.78;67.90
57250;BME280;43102;52.014;-0.680;2023-02-13T02:15:00;102625;;;8.78;67.90
57250;BME280;43102;52.014;-0.680;2023-02-13T02:16:00;102625;;;8.78;67.90
57250;BME280;43102;52.014;-0.680;2023-02-13T02:17:00;102625;;;8.78;67.90
57250;BME280;43102;52.014;-0.680;2023-02-13T02:18:00;102620;;;8.75;67.76
57250;BME280;43102;52.014;-0.680;2023-02-13T02:19:01;102620;;;8.75;67.76
57250;BME280;43102;52.014;-0.680;2023-02-13T02:22:04;102620;;;8.75;67.76
57250;BME280;43102;52.014;-0.680;2023-02-13T02:32:09;102617;;;8.75;67.59
57250;BME280;43102;52.014;-0.680;2023-02-13T02:35:06;102612;;;8.74;67.49
57250;BME280;43102;52.014;-0.680;2023-02-13T02:44:42;102618;;;8.72;67.65
57250;BME280;43102;52.014;-0.680;2023-02-13T02:45:09;102618;;;8.72;67.65
57250;BME280;43102;52.014;-0.680;2023-02-13T02:46:04;102618;;;8.72;67.65
57250;BME280;43102;52.014;-0.680;2023-02-13T02:47:08;102618;;;8.72;67.65
57250;BME280;43102;52.014;-0.680;2023-02-13T02:49:03;102615;;;8.74;67.60
57250;BME280;43102;52.014;-0.680;2023-02-13T02:52:11;102615;;;8.74;67.60
57250;BME280;43102;52.014;-0.680;2023-02-13T02:54:02;102618;;;8.71;67.72
57250;BME280;43102;52.014;-0.680;2023-02-13T02:55:04;102618;;;8.71;67.72
57250;BME280;43102;52.014;-0.680;2023-02-13T02:56:17;102618;;;8.71;67.72
57250;BME280;43102;52.014;-0.680;2023-02-13T02:57:02;102618;;;8.71;67.72
57250;BME280;43102;52.014;-0.680;2023-02-13T02:58:04;102617;;;8.66;67.91
57250;BME280;43102;52.014;-0.680;2023-02-13T03:00:00;102617;;;8.66;67.91
57250;BME280;43102;52.014;-0.680;2023-02-13T03:01:00;102617;;;8.66;67.91
57250;BME280;43102;52.014;-0.680;2023-02-13T03:02:00;102617;;;8.66;67.91
57250;BME280;43102;52.014;-0.680;2023-02-13T03:03:00;102608;;;8.59;67.60
57250;BME280;43102;52.014;-0.680;2023-02-13T03:04:00;102608;;;8.59;67.60
57250;BME280;43102;52.014;-0.680;2023-02-13T03:05:00;102608;;;8.59;67.60
57250;BME280;43102;52.014;-0.680;2023-02-13T03:06:00;102608;;;8.59;67.60
57250;BME280;43102;52.014;-0.680;2023-02-13T03:07:01;102608;;;8.59;67.60
57250;BME280;43102;52.014;-0.680;2023-02-13T03:08:01;102605;;;8.60;67.78
57250;BME280;43102;52.014;-0.680;2023-02-13T03:09:01;102605;;;8.60;67.78
57250;BME280;43102;52.014;-0.680;2023-02-13T03:10:02;102605;;;8.60;67.78
57250;BME280;43102;52.014;-0.680;2023-02-13T03:11:00;102605;;;8.60;67.78
57250;BME280;43102;52.014;-0.680;2023-02-13T03:12:00;102605;;;8.60;67.78
57250;BME280;43102;52.014;-0.680;2023-02-13T03:13:02;102605;;;8.58;67.80
57250;BME280;43102;52.014;-0.680;2023-02-13T03:14:00;102605;;;8.58;67.80
57250;BME280;43102;52.014;-0.680;2023-02-13T03:15:00;102605;;;8.58;67.80
57250;BME280;43102;52.014;-0.680;2023-02-13T03:16:00;102605;;;8.58;67.80
57250;BME280;43102;52.014;-0.680;2023-02-13T03:17:00;102605;;;8.58;67.80
57250;BME280;43102;52.014;-0.680;2023-02-13T03:18:00;102603;;;8.58;67.77
57250;BME280;43102;52.014;-0.680;2023-02-13T03:19:00;102603;;;8.58;67.77
57250;BME280;43102;52.014;-0.680;2023-02-13T03:20:03;102603;;;8.58;67.77
57250;BME280;43102;52.014;-0.680;2023-02-13T03:21:07;102603;;;8.58;67.77
57250;BME280;43102;52.014;-0.680;2023-02-13T03:22:04;102603;;;8.58;67.77
57250;BME280;43102;52.014;-0.680;2023-02-13T03:25:10;102597;;;8.57;67.65
57250;BME280;43102;52.014;-0.680;2023-02-13T03:27:09;102597;;;8.57;67.65
57250;BME280;43102;52.014;-0.680;2023-02-13T03:29:03;102594;;;8.54;67.80
57250;BME280;43102;52.014;-0.680;2023-02-13T03:30:02;102594;;;8.54;67.80
57250;BME280;43102;52.014;-0.680;2023-02-13T03:32:04;102594;;;8.54;67.80
57250;BME280;43102;52.014;-0.680;2023-02-13T03:37:02;102589;;;8.52;67.83
57250;BME280;43102;52.014;-0.680;2023-02-13T03:38:02;102594;;;8.53;68.02
57250;BME280;43102;52.014;-0.680;2023-02-13T03:40:02;102594;;;8.53;68.02
57250;BME280;43102;52.014;-0.680;2023-02-13T03:41:04;102594;;;8.53;68.02
57250;BME280;43102;52.014;-0.680;2023-02-13T03:42:01;102594;;;8.53;68.02
57250;BME280;43102;52.014;-0.680;2023-02-13T03:43:03;102595;;;8.49;68.15
57250;BME280;43102;52.014;-0.680;2023-02-13T03:46:00;102595;;;8.49;68.15
57250;BME280;43102;52.014;-0.680;2023-02-13T03:47:01;102595;;;8.49;68.15
57250;BME280;43102;52.014;-0.680;2023-02-13T03:48:00;102589;;;8.50;68.15
57250;BME280;43102;52.014;-0.680;2023-02-13T03:49:01;102589;;;8.50;68.15
57250;BME280;43102;52.014;-0.680;2023-02-13T03:50:00;102589;;;8.50;68.15
57250;BME280;43102;52.014;-0.680;2023-02-13T03:51:00;102589;;;8.50;68.15
57250;BME280;43102;52.014;-0.680;2023-02-13T03:52:03;102589;;;8.50;68.15
57250;BME280;43102;52.014;-0.680;2023-02-13T03:53:03;102592;;;8.47;68.31
57250;BME280;43102;52.014;-0.680;2023-02-13T03:54:01;102592;;;8.47;68.31
57250;BME280;43102;52.014;-0.680;2023-02-13T03:55:04;102592;;;8.47;68.31
57250;BME280;43102;52.014;-0.680;2023-02-13T03:56:00;102592;;;8.47;68.31
57250;BME280;43102;52.014;-0.680;2023-02-13T03:57:00;102592;;;8.47;68.31
57250;BME280;43102;52.014;-0.680;2023-02-13T03:58:04;102599;;;8.49;68.31
57250;BME280;43102;52.014;-0.680;2023-02-13T03:59:00;102599;;;8.49;68.31
57250;BME280;43102;52.014;-0.680;2023-02-13T04:00:00;102599;;;8.49;68.31
57250;BME280;43102;52.014;-0.680;2023-02-13T04:01:01;102599;;;8.49;68.31
57250;BME280;43102;52.014;-0.680;2023-02-13T04:04:04;102598;;;8.53;68.17
57250;BME280;43102;52.014;-0.680;2023-02-13T04:05:10;102598;;;8.53;68.17
57250;BME280;43102;52.014;-0.680;2023-02-13T04:06:02;102598;;;8.53;68.17
57250;BME280;43102;52.014;-0.680;2023-02-13T04:07:01;102598;;;8.53;68.17
57250;BME280;43102;52.014;-0.680;2023-02-13T04:08:00;102592;;;8.55;68.21
57250;BME280;43102;52.014;-0.680;2023-02-13T04:09:00;102592;;;8.55;68.21
57250;BME280;43102;52.014;-0.680;2023-02-13T04:10:02;102592;;;8.55;68.21
57250;BME280;43102;52.014;-0.680;2023-02-13T04:11:06;102592;;;8.55;68.21
57250;BME280;43102;52.014;-0.680;2023-02-13T04:13:11;102591;;;8.53;68.29
57250;BME280;43102;52.014;-0.680;2023-02-13T04:14:03;102591;;;8.53;68.29
57250;BME280;43102;52.014;-0.680;2023-02-13T04:15:06;102591;;;8.53;68.29
57250;BME280;43102;52.014;-0.680;2023-02-13T04:16:17;102591;;;8.53;68.29
57250;BME280;43102;52.014;-0.680;2023-02-13T04:17:03;102591;;;8.53;68.29
57250;BME280;43102;52.014;-0.680;2023-02-13T04:18:09;102589;;;8.53;68.38
57250;BME280;43102;52.014;-0.680;2023-02-13T04:19:00;102589;;;8.53;68.38
57250;BME280;43102;52.014;-0.680;2023-02-13T04:20:00;102589;;;8.53;68.38
57250;BME280;43102;52.014;-0.680;2023-02-13T04:21:02;102589;;;8.53;68.38
57250;BME280;43102;52.014;-0.680;2023-02-13T04:22:00;102589;;;8.53;68.38
57250;BME280;43102;52.014;-0.680;2023-02-13T04:23:08;102592;;;8.50;68.51
57250;BME280;43102;52.014;-0.680;2023-02-13T04:24:00;102592;;;8.50;68.51
57250;BME280;43102;52.014;-0.680;2023-02-13T04:25:00;102592;;;8.50;68.51
57250;BME280;43102;52.014;-0.680;2023-02-13T04:26:01;102592;;;8.50;68.51
57250;BME280;43102;52.014;-0.680;2023-02-13T04:27:00;102592;;;8.50;68.51
57250;BME280;43102;52.014;-0.680;2023-02-13T04:28:00;102592;;;8.48;68.67
57250;BME280;43102;52.014;-0.680;2023-02-13T04:29:00;102592;;;8.48;68.67
57250;BME280;43102;52.014;-0.680;2023-02-13T04:30:00;102592;;;8.48;68.67
57250;BME280;43102;52.014;-0.680;2023-02-13T04:31:00;102592;;;8.48;68.67
57250;BME280;43102;52.014;-0.680;2023-02-13T04:32:00;102592;;;8.48;68.67
57250;BME280;43102;52.014;-0.680;2023-02-13T04:33:00;102588;;;8.45;68.79
57250;BME280;43102;52.014;-0.680;2023-02-13T04:34:00;102588;;;8.45;68.79
57250;BME280;43102;52.014;-0.680;2023-02-13T04:35:00;102588;;;8.45;68.79
57250;BME280;43102;52.014;-0.680;2023-02-13T04:36:00;102588;;;8.45;68.79
57250;BME280;43102;52.014;-0.680;2023-02-13T04:37:00;102588;;;8.45;68.79
57250;BME280;43102;52.014;-0.680;2023-02-13T04:38:00;102586;;;8.48;68.77
57250;BME280;43102;52.014;-0.680;2023-02-13T04:39:00;102586;;;8.48;68.77
57250;BME280;43102;52.014;-0.680;2023-02-13T04:40:00;102586;;;8.48;68.77
57250;BME280;43102;52.014;-0.680;2023-02-13T04:41:00;102586;;;8.48;68.77
57250;BME280;43102;52.014;-0.680;2023-02-13T04:42:00;102586;;;8.48;68.77
57250;BME280;43102;52.014;-0.680;2023-02-13T04:43:00;102589;;;8.47;68.79
57250;BME280;43102;52.014;-0.680;2023-02-13T04:44:00;102589;;;8.47;68.79
57250;BME280;43102;52.014;-0.680;2023-02-13T04:45:00;102589;;;8.47;68.79
57250;BME280;43102;52.014;-0.680;2023-02-13T04:46:00;102589;;;8.47;68.79
57250;BME280;43102;52.014;-0.680;2023-02-13T04:47:00;102589;;;8.47;68.79
57250;BME280;43102;52.014;-0.680;2023-02-13T04:48:00;102582;;;8.47;68.81
57250;BME280;43102;52.014;-0.680;2023-02-13T04:49:00;102582;;;8.47;68.81
57250;BME280;43102;52.014;-0.680;2023-02-13T04:50:00;102582;;;8.47;68.81
57250;BME280;43102;52.014;-0.680;2023-02-13T04:51:00;102582;;;8.47;68.81
57250;BME280;43102;52.014;-0.680;2023-02-13T04:52:00;102582;;;8.47;68.81
57250;BME280;43102;52.014;-0.680;2023-02-13T04:53:00;102581;;;8.43;68.83
57250;BME280;43102;52.014;-0.680;2023-02-13T04:54:00;102581;;;8.43;68.83
57250;BME280;43102;52.014;-0.680;2023-02-13T04:55:00;102581;;;8.43;68.83
57250;BME280;43102;52.014;-0.680;2023-02-13T04:56:00;102581;;;8.43;68.83
57250;BME280;43102;52.014;-0.680;2023-02-13T04:57:00;102581;;;8.43;68.83
57250;BME280;43102;52.014;-0.680;2023-02-13T04:58:00;102573;;;8.39;69.00
57250;BME280;43102;52.014;-0.680;2023-02-13T04:59:00;102573;;;8.39;69.00
57250;BME280;43102;52.014;-0.680;2023-02-13T05:00:00;102573;;;8.39;69.00
57250;BME280;43102;52.014;-0.680;2023-02-13T05:01:00;102573;;;8.39;69.00
57250;BME280;43102;52.014;-0.680;2023-02-13T05:02:00;102573;;;8.39;69.00
57250;BME280;43102;52.014;-0.680;2023-02-13T05:03:09;102572;;;8.37;69.07
57250;BME280;43102;52.014;-0.680;2023-02-13T05:04:00;102572;;;8.37;69.07
57250;BME280;43102;52.014;-0.680;2023-02-13T05:05:00;102572;;;8.37;69.07
57250;BME280;43102;52.014;-0.680;2023-02-13T05:06:00;102572;;;8.37;69.07
57250;BME280;43102;52.014;-0.680;2023-02-13T05:07:00;102572;;;8.37;69.07
57250;BME280;43102;52.014;-0.680;2023-02-13T05:08:00;102572;;;8.37;69.08
57250;BME280;43102;52.014;-0.680;2023-02-13T05:09:00;102572;;;8.37;69.08
57250;BME280;43102;52.014;-0.680;2023-02-13T05:10:00;102572;;;8.37;69.08
57250;BME280;43102;52.014;-0.680;2023-02-13T05:11:00;102572;;;8.37;69.08
57250;BME280;43102;52.014;-0.680;2023-02-13T05:12:00;102572;;;8.37;69.08
57250;BME280;43102;52.014;-0.680;2023-02-13T05:13:00;102571;;;8.21;69.70
57250;BME280;43102;52.014;-0.680;2023-02-13T05:14:00;102571;;;8.21;69.70
57250;BME280;43102;52.014;-0.680;2023-02-13T05:15:00;102571;;;8.21;69.70
57250;BME280;43102;52.014;-0.680;2023-02-13T05:16:00;102571;;;8.21;69.70
57250;BME280;43102;52.014;-0.680;2023-02-13T05:17:00;102571;;;8.21;69.70
57250;BME280;43102;52.014;-0.680;2023-02-13T05:18:00;102568;;;8.23;69.69
57250;BME280;43102;52.014;-0.680;2023-02-13T05:19:00;102568;;;8.23;69.69
57250;BME280;43102;52.014;-0.680;2023-02-13T05:20:00;102568;;;8.23;69.69
57250;BME280;43102;52.014;-0.680;2023-02-13T05:21:00;102568;;;8.23;69.69
57250;BME280;43102;52.014;-0.680;2023-02-13T05:22:00;102568;;;8.23;69.69
57250;BME280;43102;52.014;-0.680;2023-02-13T05:23:00;102566;;;8.24;69.57
57250;BME280;43102;52.014;-0.680;2023-02-13T05:24:00;102566;;;8.24;69.57
57250;BME280;43102;52.014;-0.680;2023-02-13T05:25:00;102566;;;8.24;69.57
57250;BME280;43102;52.014;-0.680;2023-02-13T05:26:00;102566;;;8.24;69.57
57250;BME280;43102;52.014;-0.680;2023-02-13T05:27:00;102566;;;8.24;69.57
57250;BME280;43102;52.014;-0.680;2023-02-13T05:28:00;102558;;;8.19;69.67
57250;BME280;43102;52.014;-0.680;2023-02-13T05:29:00;102558;;;8.19;69.67
57250;BME280;43102;52.014;-0.680;2023-02-13T05:30:00;102558;;;8.19;69.67
57250;BME280;43102;52.014;-0.680;2023-02-13T05:31:00;102558;;;8.19;69.67
57250;BME280;43102;52.014;-0.680;2023-02-13T05:32:00;102558;;;8.19;69.67
57250;BME280;43102;52.014;-0.680;2023-02-13T05:33:00;102560;;;8.08;69.83
57250;BME280;43102;52.014;-0.680;2023-02-13T05:34:00;102560;;;8.08;69.83
57250;BME280;43102;52.014;-0.680;2023-02-13T05:35:00;102560;;;8.08;69.83
57250;BME280;43102;52.014;-0.680;2023-02-13T05:36:00;102560;;;8.08;69.83
57250;BME280;43102;52.014;-0.680;2023-02-13T05:37:00;102560;;;8.08;69.83
57250;BME280;43102;52.014;-0.680;2023-02-13T05:38:00;102563;;;8.04;70.25
57250;BME280;43102;52.014;-0.680;2023-02-13T05:39:00;102563;;;8.04;70.25
57250;BME280;43102;52.014;-0.680;2023-02-13T05:40:00;102563;;;8.04;70.25
57250;BME280;43102;52.014;-0.680;2023-02-13T05:41:00;102563;;;8.04;70.25
57250;BME280;43102;52.014;-0.680;2023-02-13T05:42:00;102563;;;8.04;70.25
57250;BME280;43102;52.014;-0.680;2023-02-13T05:43:00;102569;;;7.98;70.39
57250;BME280;43102;52.014;-0.680;2023-02-13T05:44:00;102569;;;7.98;70.39
57250;BME280;43102;52.014;-0.680;2023-02-13T05:45:00;102569;;;7.98;70.39
57250;BME280;43102;52.014;-0.680;2023-02-13T05:46:02;102569;;;7.98;70.39
57250;BME280;43102;52.014;-0.680;2023-02-13T05:47:00;102569;;;7.98;70.39
57250;BME280;43102;52.014;-0.680;2023-02-13T05:48:00;102577;;;7.99;70.42
57250;BME280;43102;52.014;-0.680;2023-02-13T05:49:00;102577;;;7.99;70.42
57250;BME280;43102;52.014;-0.680;2023-02-13T05:50:00;102577;;;7.99;70.42
57250;BME280;43102;52.014;-0.680;2023-02-13T05:51:00;102577;;;7.99;70.42
57250;BME280;43102;52.014;-0.680;2023-02-13T05:52:00;102577;;;7.99;70.42
57250;BME280;43102;52.014;-0.680;2023-02-13T05:53:00;102578;;;7.96;70.46
57250;BME280;43102;52.014;-0.680;2023-02-13T05:54:00;102578;;;7.96;70.46
57250;BME280;43102;52.014;-0.680;2023-02-13T05:55:00;102578;;;7.96;70.46
57250;BME280;43102;52.014;-0.680;2023-02-13T05:56:00;102578;;;7.96;70.46
57250;BME280;43102;52.014;-0.680;2023-02-13T05:57:00;102578;;;7.96;70.46
57250;BME280;43102;52.014;-0.680;2023-02-13T05:58:00;102578;;;7.94;70.55
57250;BME280;43102;52.014;-0.680;2023-02-13T05:59:00;102578;;;7.94;70.55
57250;BME280;43102;52.014;-0.680;2023-02-13T06:00:00;102578;;;7.94;70.55
57250;BME280;43102;52.014;-0.680;2023-02-13T06:01:00;102578;;;7.94;70.55
57250;BME280;43102;52.014;-0.680;2023-02-13T06:02:00;102578;;;7.94;70.55
57250;BME280;43102;52.014;-0.680;2023-02-13T06:03:00;102578;;;7.92;70.62
57250;BME280;43102;52.014;-0.680;2023-02-13T06:04:00;102578;;;7.92;70.62
57250;BME280;43102;52.014;-0.680;2023-02-13T06:05:00;102578;;;7.92;70.62
57250;BME280;43102;52.014;-0.680;2023-02-13T06:06:00;102578;;;7.92;70.62
57250;BME280;43102;52.014;-0.680;2023-02-13T06:07:00;102578;;;7.92;70.62
57250;BME280;43102;52.014;-0.680;2023-02-13T06:08:00;102582;;;7.92;70.68